Time;durP1;ratioP1;P1;durP2;ratioP2;P2;SDS_P1;SDS_P2;PMS_P1;PMS_P2;Temp;Humidity;BMP_temperature;BMP_pressure;BME280_temperature;BME280_humidity;BME280_pressure;Samples;Min_cycle;Max_cycle;Signal;HPM_P1;HPM_P2
2021/01/11 00:01:44;;;;;;;42.15;28.17;;;0.80;99.90;;;;;;5024040;28;20049;-77
2021/01/11 00:04:11;;;;;;;41.75;29.88;;;0.80;99.90;;;;;;5062808;28;20427;-75
2021/01/11 00:06:42;;;;;;;40.40;28.75;;;0.70;99.90;;;;;;5038995;28;20053;-75
2021/01/11 00:09:08;;;;;;;46.75;28.60;;;0.70;99.90;;;;;;5064191;28;20061;-75
2021/01/11 00:11:35;;;;;;;43.65;28.58;;;0.60;99.90;;;;;;5048861;28;20490;-75
2021/01/11 00:14:04;;;;;;;45.60;29.05;;;0.60;99.90;;;;;;5064746;28;20040;-75
2021/01/11 00:16:31;;;;;;;48.28;29.48;;;0.50;99.90;;;;;;5048621;28;20070;-75
2021/01/11 00:18:58;;;;;;;50.58;30.85;;;0.50;99.90;;;;;;5065823;28;20140;-74
2021/01/11 00:21:25;;;;;;;40.75;26.80;;;0.50;99.90;;;;;;5062196;28;20048;-75
2021/01/11 00:23:51;;;;;;;45.83;28.33;;;0.50;99.90;;;;;;5065247;28;20640;-75
2021/01/11 00:26:17;;;;;;;44.25;26.10;;;0.40;99.90;;;;;;5066619;28;20123;-75
2021/01/11 00:28:44;;;;;;;51.08;29.33;;;0.40;99.90;;;;;;5067647;28;20049;-75
2021/01/11 00:31:11;;;;;;;45.83;29.52;;;0.30;99.90;;;;;;5046463;28;20067;-75
2021/01/11 00:33:39;;;;;;;52.90;30.52;;;0.30;99.90;;;;;;5065325;28;20565;-76
2021/01/11 00:36:10;;;;;;;49.78;29.27;;;0.30;99.90;;;;;;5043499;28;20061;-76
2021/01/11 00:38:37;;;;;;;56.22;31.45;;;0.30;99.90;;;;;;5048507;28;20048;-76
2021/01/11 00:41:03;;;;;;;59.38;31.67;;;0.30;99.90;;;;;;5049261;28;20056;-75
2021/01/11 00:43:29;;;;;;;58.97;31.27;;;0.30;99.90;;;;;;5066512;28;20053;-76
2021/01/11 00:45:56;;;;;;;65.45;31.88;;;0.30;99.90;;;;;;5072080;28;20494;-75
2021/01/11 00:48:22;;;;;;;60.85;32.75;;;0.30;99.90;;;;;;5034593;28;20048;-75
2021/01/11 00:50:49;;;;;;;61.70;31.58;;;0.20;99.90;;;;;;5047602;28;20121;-75
2021/01/11 00:53:18;;;;;;;58.15;32.25;;;0.20;99.90;;;;;;5047951;28;20051;-76
2021/01/11 00:55:44;;;;;;;56.63;30.00;;;0.20;99.90;;;;;;5048169;28;20498;-76
2021/01/11 00:58:17;;;;;;;55.85;31.90;;;0.20;99.90;;;;;;5033408;28;20572;-76
2021/01/11 01:00:49;;;;;;;57.55;30.67;;;0.30;99.90;;;;;;5031473;28;20422;-76
2021/01/11 01:03:22;;;;;;;62.95;33.08;;;0.20;99.90;;;;;;5048558;28;20045;-75
2021/01/11 01:05:48;;;;;;;64.15;33.05;;;0.20;99.90;;;;;;5047359;28;20048;-76
2021/01/11 01:08:15;;;;;;;55.08;31.10;;;0.20;99.90;;;;;;5048569;28;20059;-75
2021/01/11 01:10:41;;;;;;;55.35;30.98;;;0.20;99.90;;;;;;5031811;28;20044;-75
2021/01/11 01:13:08;;;;;;;46.95;26.10;;;0.20;99.90;;;;;;5046758;28;20044;-76
2021/01/11 01:15:34;;;;;;;54.03;30.85;;;0.20;99.90;;;;;;5043106;28;20723;-75
2021/01/11 01:18:01;;;;;;;53.35;31.45;;;0.20;99.90;;;;;;5046768;28;20174;-75
2021/01/11 01:20:27;;;;;;;49.92;28.58;;;0.20;99.90;;;;;;5044092;28;20473;-76
2021/01/11 01:22:53;;;;;;;44.30;25.33;;;0.30;99.90;;;;;;5039794;28;20135;-76
2021/01/11 01:25:20;;;;;;;53.85;29.83;;;0.20;99.90;;;;;;5027794;28;20144;-75
2021/01/11 01:27:46;;;;;;;50.15;28.73;;;0.30;99.90;;;;;;5010221;28;20409;-77
2021/01/11 01:30:13;;;;;;;50.70;31.92;;;0.30;99.90;;;;;;5029106;28;20102;-75
2021/01/11 01:32:41;;;;;;;47.25;29.90;;;0.30;99.90;;;;;;5047059;28;20051;-75
2021/01/11 01:35:10;;;;;;;48.00;28.60;;;0.40;99.90;;;;;;5064554;28;20533;-75
2021/01/11 01:37:37;;;;;;;51.15;31.00;;;0.40;99.90;;;;;;5058065;28;20060;-75
2021/01/11 01:40:05;;;;;;;49.05;30.52;;;0.40;99.90;;;;;;5062028;28;20064;-77
2021/01/11 01:42:32;;;;;;;48.75;29.40;;;0.40;99.90;;;;;;5063355;28;20102;-75
2021/01/11 01:44:58;;;;;;;46.15;29.55;;;0.40;99.90;;;;;;5031479;28;20227;-75
2021/01/11 01:47:26;;;;;;;44.22;27.70;;;0.40;99.90;;;;;;5062168;28;20045;-75
2021/01/11 01:49:52;;;;;;;48.80;29.25;;;0.50;99.90;;;;;;5031205;28;20759;-75
2021/01/11 01:52:20;;;;;;;49.08;27.85;;;0.50;99.90;;;;;;5045014;28;20064;-75
2021/01/11 01:54:49;;;;;;;46.25;28.67;;;0.50;99.90;;;;;;5009755;28;20052;-75
2021/01/11 01:57:17;;;;;;;42.97;27.02;;;0.50;99.90;;;;;;5041278;28;20443;-76
2021/01/11 01:59:47;;;;;;;48.22;26.27;;;0.50;99.90;;;;;;5026674;28;20195;-75
2021/01/11 02:02:14;;;;;;;43.55;25.85;;;0.50;99.90;;;;;;5042813;28;20265;-76
2021/01/11 02:04:42;;;;;;;44.00;26.80;;;0.50;99.90;;;;;;5045829;28;20049;-75
2021/01/11 02:07:32;;;;;;;53.58;28.50;;;0.50;99.90;;;;;;5055313;28;20048;-76
2021/01/11 02:10:35;;;;;;;41.13;27.02;;;0.50;99.90;;;;;;5045575;28;20059;-74
2021/01/11 02:13:20;;;;;;;50.45;27.42;;;0.50;99.90;;;;;;5045462;28;20048;-75
2021/01/11 02:15:57;;;;;;;46.42;26.65;;;0.50;99.90;;;;;;5048503;28;20033;-75
2021/01/11 02:18:33;;;;;;;48.30;28.15;;;0.50;99.90;;;;;;5072899;28;20044;-76
2021/01/11 02:21:07;;;;;;;47.78;28.58;;;0.50;99.90;;;;;;5046595;28;20368;-76
2021/01/11 02:23:56;;;;;;;47.70;27.00;;;0.50;99.90;;;;;;5063575;28;20048;-75
2021/01/11 02:26:43;;;;;;;37.40;24.70;;;0.50;99.90;;;;;;5046166;28;20135;-75
2021/01/11 02:29:24;;;;;;;40.63;24.48;;;0.40;99.90;;;;;;5060602;28;20053;-75
2021/01/11 02:31:52;;;;;;;37.03;23.80;;;0.50;99.90;;;;;;5046235;28;20049;-76
2021/01/11 02:34:19;;;;;;;38.42;24.80;;;0.50;99.90;;;;;;5026103;28;20061;-76
2021/01/11 02:36:45;;;;;;;37.45;23.83;;;0.50;99.90;;;;;;5035829;28;20052;-75
2021/01/11 02:39:12;;;;;;;37.08;24.15;;;0.50;99.90;;;;;;5026244;28;20128;-75
2021/01/11 02:41:38;;;;;;;32.65;23.92;;;0.50;99.90;;;;;;5032321;28;20495;-75
2021/01/11 02:44:05;;;;;;;36.67;24.50;;;0.50;99.90;;;;;;5038177;28;20458;-75
2021/01/11 02:46:31;;;;;;;39.53;24.73;;;0.50;99.90;;;;;;5026102;28;20072;-76
2021/01/11 02:49:04;;;;;;;35.15;23.80;;;0.50;99.90;;;;;;5025521;28;20138;-76
2021/01/11 02:51:40;;;;;;;45.33;26.20;;;0.50;99.90;;;;;;5034713;28;20483;-75
2021/01/11 02:54:15;;;;;;;37.72;26.17;;;0.60;99.90;;;;;;5043333;28;20045;-76
2021/01/11 02:56:52;;;;;;;35.38;24.60;;;0.60;99.90;;;;;;5020672;28;20668;-75
2021/01/11 02:59:23;;;;;;;36.58;24.15;;;0.60;99.90;;;;;;5027348;28;20503;-74
2021/01/11 03:02:03;;;;;;;34.78;24.67;;;0.60;99.90;;;;;;5053336;28;20048;-75
2021/01/11 03:04:31;;;;;;;37.75;26.42;;;0.60;99.90;;;;;;5056326;28;20106;-76
2021/01/11 03:07:08;;;;;;;42.35;26.13;;;0.60;99.90;;;;;;5063411;28;20136;-76
2021/01/11 03:09:38;;;;;;;37.20;24.88;;;0.60;99.90;;;;;;5051385;28;20423;-76
2021/01/11 03:12:05;;;;;;;32.55;24.45;;;0.60;99.90;;;;;;5047762;28;20041;-75
2021/01/11 03:14:32;;;;;;;34.30;25.05;;;0.60;99.90;;;;;;5047820;28;20084;-75
2021/01/11 03:16:58;;;;;;;35.35;24.95;;;0.60;99.90;;;;;;5046844;28;20048;-75
2021/01/11 03:19:25;;;;;;;38.25;25.55;;;0.60;99.90;;;;;;5030186;28;20044;-75
2021/01/11 03:21:52;;;;;;;32.97;25.80;;;0.60;99.90;;;;;;5024727;28;20042;-75
2021/01/11 03:24:19;;;;;;;34.65;25.75;;;0.60;99.90;;;;;;5030279;28;20126;-76
2021/01/11 03:26:47;;;;;;;38.38;25.98;;;0.60;99.90;;;;;;5030393;28;20049;-75
2021/01/11 03:29:14;;;;;;;39.47;25.23;;;0.60;99.90;;;;;;5030225;28;20095;-75
2021/01/11 03:31:41;;;;;;;33.05;24.58;;;0.60;99.90;;;;;;5013060;28;20044;-76
2021/01/11 03:34:09;;;;;;;37.58;24.98;;;0.60;99.90;;;;;;5047921;28;20061;-75
2021/01/11 03:36:37;;;;;;;35.53;25.77;;;0.60;99.90;;;;;;5042214;28;20045;-75
2021/01/11 03:39:05;;;;;;;34.75;25.65;;;0.50;99.90;;;;;;5045303;28;20052;-75
2021/01/11 03:41:35;;;;;;;38.15;25.88;;;0.60;99.90;;;;;;5059394;28;20530;-76
2021/01/11 03:44:03;;;;;;;34.92;25.45;;;0.60;99.90;;;;;;5066471;28;20043;-76
2021/01/11 03:46:30;;;;;;;34.47;25.25;;;0.60;99.90;;;;;;5054161;28;20465;-76
2021/01/11 03:48:58;;;;;;;35.65;25.38;;;0.60;99.90;;;;;;5066519;28;20094;-76
2021/01/11 03:51:25;;;;;;;39.33;27.02;;;0.60;99.90;;;;;;5032168;28;20047;-75
2021/01/11 03:53:52;;;;;;;33.17;26.38;;;0.60;99.90;;;;;;5068333;28;20067;-75
2021/01/11 03:56:20;;;;;;;33.03;24.58;;;0.60;99.90;;;;;;5049550;28;20041;-75
2021/01/11 03:58:46;;;;;;;35.88;25.65;;;0.60;99.90;;;;;;5049996;28;20048;-75
2021/01/11 04:01:13;;;;;;;33.30;24.50;;;0.60;99.90;;;;;;5046388;28;20036;-76
2021/01/11 04:03:40;;;;;;;38.90;27.00;;;0.60;99.90;;;;;;5065876;28;20045;-76
2021/01/11 04:06:07;;;;;;;33.92;25.42;;;0.60;99.90;;;;;;5064039;28;20049;-74
2021/01/11 04:08:33;;;;;;;35.42;24.95;;;0.60;99.90;;;;;;5067163;28;20052;-76
2021/01/11 04:11:00;;;;;;;38.30;26.50;;;0.60;99.90;;;;;;5040710;28;20127;-76
2021/01/11 04:13:27;;;;;;;40.92;26.67;;;0.60;99.90;;;;;;5046120;28;20468;-75
2021/01/11 04:15:53;;;;;;;37.25;25.75;;;0.60;99.90;;;;;;5008939;28;20176;-75
2021/01/11 04:18:20;;;;;;;33.88;23.48;;;0.60;99.90;;;;;;5028776;28;20064;-75
2021/01/11 04:20:46;;;;;;;39.67;25.08;;;0.60;99.90;;;;;;5022151;28;20114;-76
2021/01/11 04:23:13;;;;;;;34.28;23.17;;;0.60;99.90;;;;;;5046145;28;20136;-76
2021/01/11 04:25:39;;;;;;;34.45;24.13;;;0.60;99.90;;;;;;5048747;28;20063;-75
2021/01/11 04:28:06;;;;;;;32.80;24.20;;;0.60;99.90;;;;;;5054310;28;20052;-75
2021/01/11 04:30:32;;;;;;;34.53;22.58;;;0.60;99.90;;;;;;5014056;28;20052;-76
2021/01/11 04:32:59;;;;;;;34.78;22.85;;;0.60;99.90;;;;;;5065199;28;20536;-75
2021/01/11 04:35:27;;;;;;;38.00;22.60;;;0.50;99.90;;;;;;5047728;28;20045;-75
2021/01/11 04:37:55;;;;;;;35.05;22.80;;;0.50;99.90;;;;;;5061234;28;20408;-76
2021/01/11 04:40:22;;;;;;;40.42;23.85;;;0.50;99.90;;;;;;5048458;28;20052;-75
2021/01/11 04:42:51;;;;;;;37.65;23.77;;;0.50;99.90;;;;;;5048907;28;20044;-76
2021/01/11 04:45:19;;;;;;;43.75;24.83;;;0.50;99.90;;;;;;5074606;28;20129;-74
2021/01/11 04:47:51;;;;;;;44.03;25.52;;;0.50;99.90;;;;;;5049396;28;20032;-76
2021/01/11 04:50:18;;;;;;;46.53;25.92;;;0.50;99.90;;;;;;5062917;28;20063;-77
2021/01/11 04:52:45;;;;;;;41.05;24.02;;;0.40;99.90;;;;;;5044389;28;20045;-75
2021/01/11 04:55:13;;;;;;;43.40;24.65;;;0.40;99.90;;;;;;5045693;28;20068;-75
2021/01/11 04:57:48;;;;;;;35.83;22.52;;;0.40;99.90;;;;;;5029246;28;20075;-75
2021/01/11 05:00:19;;;;;;;46.80;23.75;;;0.40;99.90;;;;;;5028524;28;20049;-75
2021/01/11 05:02:46;;;;;;;39.92;23.30;;;0.50;99.90;;;;;;5048441;28;20037;-75
2021/01/11 05:05:13;;;;;;;39.15;23.63;;;0.40;99.90;;;;;;5065033;28;20045;-76
2021/01/11 05:07:39;;;;;;;40.63;24.30;;;0.40;99.90;;;;;;5060846;28;20647;-75
2021/01/11 05:10:09;;;;;;;42.33;26.58;;;0.40;99.90;;;;;;5065475;28;20244;-76
2021/01/11 05:12:35;;;;;;;43.83;26.98;;;0.50;99.90;;;;;;5060343;28;20135;-75
2021/01/11 05:15:18;;;;;;;34.05;25.02;;;0.50;99.90;;;;;;5047461;28;20060;-75
2021/01/11 05:17:45;;;;;;;38.50;26.90;;;0.50;99.90;;;;;;5025066;28;20048;-76
2021/01/11 05:20:13;;;;;;;34.83;25.20;;;0.60;99.90;;;;;;5023790;28;20360;-75
2021/01/11 05:22:46;;;;;;;47.65;31.15;;;0.60;99.90;;;;;;5038440;28;20095;-75
2021/01/11 05:25:19;;;;;;;40.30;26.73;;;0.60;99.90;;;;;;5045684;28;20049;-75
2021/01/11 05:28:03;;;;;;;37.55;25.10;;;0.60;99.90;;;;;;5044731;28;20037;-75
2021/01/11 05:30:33;;;;;;;38.80;25.83;;;0.60;99.90;;;;;;5026222;28;20045;-76
2021/01/11 05:32:59;;;;;;;37.45;27.63;;;0.60;99.90;;;;;;5041297;28;20120;-76
2021/01/11 05:35:26;;;;;;;33.35;26.10;;;0.60;99.90;;;;;;5044123;28;20250;-77
2021/01/11 05:37:54;;;;;;;37.28;26.98;;;0.60;99.90;;;;;;5021019;28;20046;-75
2021/01/11 05:40:23;;;;;;;32.33;26.98;;;0.60;99.90;;;;;;5042626;28;20048;-76
2021/01/11 05:42:53;;;;;;;32.25;26.67;;;0.60;99.90;;;;;;5011133;28;20047;-76
2021/01/11 05:45:28;;;;;;;40.83;27.15;;;0.60;99.90;;;;;;5026863;28;20056;-75
2021/01/11 05:48:08;;;;;;;33.78;26.60;;;0.60;99.90;;;;;;5011862;28;20048;-75
2021/01/11 05:50:48;;;;;;;36.10;25.77;;;0.60;99.90;;;;;;5036083;28;20430;-77
2021/01/11 05:53:21;;;;;;;35.78;26.67;;;0.60;99.90;;;;;;5030692;28;20081;-75
2021/01/11 05:55:49;;;;;;;35.53;27.27;;;0.60;99.90;;;;;;5058026;28;20067;-75
2021/01/11 05:58:19;;;;;;;38.00;25.95;;;0.60;99.90;;;;;;5027338;28;20467;-75
2021/01/11 06:00:46;;;;;;;35.42;25.67;;;0.60;99.90;;;;;;5040505;28;20674;-76
2021/01/11 06:03:13;;;;;;;39.22;27.15;;;0.70;99.90;;;;;;5026813;28;20052;-75
2021/01/11 06:05:40;;;;;;;32.47;24.05;;;0.60;99.90;;;;;;5029586;28;20065;-76
2021/01/11 06:08:10;;;;;;;41.00;26.25;;;0.60;99.90;;;;;;5036526;28;20048;-75
2021/01/11 06:10:37;;;;;;;33.95;26.33;;;0.70;99.90;;;;;;5045844;28;20110;-74
2021/01/11 06:13:08;;;;;;;32.55;26.27;;;0.70;99.90;;;;;;5042857;28;20122;-76
2021/01/11 06:15:36;;;;;;;33.90;26.33;;;0.60;99.90;;;;;;5053091;28;20114;-74
2021/01/11 06:18:11;;;;;;;33.78;27.00;;;0.60;99.90;;;;;;5044364;28;20056;-74
2021/01/11 06:20:45;;;;;;;;;;;0.60;99.90;;;;;;5043020;28;20419;-75
2021/01/11 06:23:32;;;;;;;35.50;26.35;;;0.60;99.90;;;;;;5043578;28;20044;-75
2021/01/11 06:25:59;;;;;;;27.80;24.13;;;0.60;99.90;;;;;;5027525;28;20675;-76
2021/01/11 06:28:30;;;;;;;31.95;24.98;;;0.60;99.90;;;;;;5044185;28;20067;-76
2021/01/11 06:31:12;;;;;;;39.40;28.38;;;0.60;99.90;;;;;;5009466;28;20083;-74
2021/01/11 06:33:40;;;;;;;39.50;26.77;;;0.60;99.90;;;;;;5053999;28;20106;-75
2021/01/11 06:36:25;;;;;;;40.38;29.30;;;0.50;99.90;;;;;;5040976;28;20519;-76
2021/01/11 06:38:53;;;;;;;;;;;0.60;99.90;;;;;;5028612;28;20045;-75
2021/01/11 06:41:21;;;;;;;37.50;26.70;;;0.50;99.90;;;;;;5042947;28;20022;-75
2021/01/11 06:43:50;;;;;;;37.22;27.25;;;0.50;99.90;;;;;;5044355;28;20060;-75
2021/01/11 06:46:29;;;;;;;40.35;26.08;;;0.50;99.90;;;;;;5009121;28;20702;-75
2021/01/11 06:49:01;;;;;;;32.88;27.42;;;0.50;99.90;;;;;;5044258;28;20045;-74
2021/01/11 06:51:39;;;;;;;46.47;28.10;;;0.50;99.90;;;;;;5050911;28;20062;-75
2021/01/11 06:54:07;;;;;;;38.15;29.17;;;0.60;99.90;;;;;;5065094;28;20467;-75
2021/01/11 06:56:35;;;;;;;44.00;28.85;;;0.60;99.90;;;;;;5063928;28;20048;-74
2021/01/11 06:59:07;;;;;;;40.05;28.90;;;0.60;99.90;;;;;;5067114;28;20098;-75
2021/01/11 07:01:37;;;;;;;41.85;28.98;;;0.50;99.90;;;;;;5008282;28;20041;-75
2021/01/11 07:04:05;;;;;;;43.00;30.90;;;0.50;99.90;;;;;;5041484;28;20119;-75
2021/01/11 07:06:35;;;;;;;37.58;27.35;;;0.50;99.90;;;;;;5042039;28;20049;-75
2021/01/11 07:09:11;;;;;;;39.55;26.70;;;0.50;99.90;;;;;;5026939;28;20518;-76
2021/01/11 07:11:40;;;;;;;32.83;26.67;;;0.50;99.90;;;;;;5026223;28;20048;-75
2021/01/11 07:14:07;;;;;;;38.38;28.10;;;0.50;99.90;;;;;;5025417;28;20084;-75
2021/01/11 07:16:46;;;;;;;38.92;29.30;;;0.50;99.90;;;;;;5030655;28;20141;-76
2021/01/11 07:19:14;;;;;;;36.65;27.30;;;0.50;99.90;;;;;;5026968;28;20041;-75
2021/01/11 07:21:41;;;;;;;41.83;28.60;;;0.50;99.90;;;;;;5056574;28;20040;-75
2021/01/11 07:24:10;;;;;;;35.70;25.55;;;0.40;99.90;;;;;;5046396;28;20197;-76
2021/01/11 07:26:37;;;;;;;36.40;27.85;;;0.40;99.90;;;;;;5063213;28;20052;-75
2021/01/11 07:29:08;;;;;;;34.75;25.45;;;0.40;99.90;;;;;;5046990;28;20144;-76
2021/01/11 07:31:44;;;;;;;33.33;25.75;;;0.30;99.90;;;;;;5050539;28;20438;-74
2021/01/11 07:34:13;;;;;;;35.45;27.05;;;0.30;99.90;;;;;;5059875;28;20140;-76
2021/01/11 07:36:42;;;;;;;37.38;26.30;;;0.30;99.90;;;;;;5021673;28;20588;-75
2021/01/11 07:39:11;;;;;;;35.63;26.48;;;0.30;99.90;;;;;;5040706;28;20072;-75
2021/01/11 07:41:39;;;;;;;31.52;24.45;;;0.30;99.90;;;;;;5053886;28;20144;-74
2021/01/11 07:44:10;;;;;;;26.38;22.73;;;0.30;99.90;;;;;;5040830;28;20056;-76
2021/01/11 07:46:37;;;;;;;32.25;23.80;;;0.30;99.90;;;;;;5041451;28;20525;-76
2021/01/11 07:49:15;;;;;;;29.73;23.75;;;0.30;99.90;;;;;;5022802;28;20506;-75
2021/01/11 07:51:44;;;;;;;27.30;24.10;;;0.30;99.90;;;;;;5035610;28;20680;-76
2021/01/11 07:54:17;;;;;;;28.08;24.23;;;0.40;99.90;;;;;;5045644;28;20060;-75
2021/01/11 07:56:44;;;;;;;27.85;23.45;;;0.40;99.90;;;;;;5045146;28;20045;-75
2021/01/11 07:59:11;;;;;;;29.15;22.02;;;0.40;99.90;;;;;;5046006;28;20146;-75
2021/01/11 08:01:40;;;;;;;30.98;24.30;;;0.50;99.90;;;;;;5039934;28;20052;-74
2021/01/11 08:04:10;;;;;;;28.67;23.70;;;0.40;99.90;;;;;;5047468;28;20442;-74
2021/01/11 08:06:57;;;;;;;27.48;23.85;;;0.40;99.90;;;;;;5043458;28;20471;-75
2021/01/11 08:09:25;;;;;;;30.20;24.13;;;0.40;99.90;;;;;;5039069;28;20307;-74
2021/01/11 08:12:11;;;;;;;28.52;24.10;;;0.50;99.90;;;;;;5042104;28;20072;-76
2021/01/11 08:14:39;;;;;;;;;;;0.50;99.90;;;;;;5059477;28;20055;-75
2021/01/11 08:17:12;;;;;;;28.90;22.45;;;0.40;99.90;;;;;;5046523;28;19932;-75
2021/01/11 08:19:42;;;;;;;26.83;22.90;;;0.40;99.90;;;;;;5063545;28;20504;-75
2021/01/11 08:22:10;;;;;;;28.95;24.20;;;0.30;99.90;;;;;;5041407;28;20388;-74
2021/01/11 08:24:37;;;;;;;30.95;24.33;;;0.30;99.90;;;;;;5029560;28;20365;-74
2021/01/11 08:27:07;;;;;;;37.55;26.60;;;0.30;99.90;;;;;;5040291;28;20041;-75
2021/01/11 08:29:36;;;;;;;29.90;26.02;;;0.30;99.90;;;;;;5036903;28;20657;-75
2021/01/11 08:32:05;;;;;;;29.55;25.98;;;0.30;99.90;;;;;;5012071;28;20037;-76
2021/01/11 08:34:32;;;;;;;31.60;25.75;;;0.30;99.90;;;;;;5046025;28;20434;-75
2021/01/11 08:36:59;;;;;;;28.70;24.33;;;0.30;99.90;;;;;;5040797;28;20367;-76
2021/01/11 08:39:26;;;;;;;30.92;24.85;;;0.40;99.90;;;;;;5062709;28;20091;-75
2021/01/11 08:41:54;;;;;;;33.42;25.08;;;0.40;99.90;;;;;;5045176;28;20052;-75
2021/01/11 08:44:32;;;;;;;28.60;25.55;;;0.40;99.90;;;;;;5062267;28;20495;-75
2021/01/11 08:47:03;;;;;;;26.75;23.80;;;0.40;99.90;;;;;;5045845;28;20122;-76
2021/01/11 08:49:30;;;;;;;27.35;24.75;;;0.40;99.90;;;;;;5032691;28;20493;-76
2021/01/11 08:52:11;;;;;;;28.30;25.27;;;0.30;99.90;;;;;;5029743;28;20056;-75
2021/01/11 08:54:39;;;;;;;27.15;23.75;;;0.40;99.90;;;;;;5028507;28;20144;-76
2021/01/11 08:57:14;;;;;;;26.55;23.67;;;0.40;99.90;;;;;;5011811;28;20048;-76
2021/01/11 08:59:48;;;;;;;26.00;23.38;;;0.40;99.90;;;;;;5045477;28;20053;-76
2021/01/11 09:02:25;;;;;;;26.25;23.17;;;0.50;99.90;;;;;;5044760;28;20093;-75
2021/01/11 09:04:53;;;;;;;25.30;23.05;;;0.50;99.90;;;;;;5013240;28;20053;-75
2021/01/11 09:07:33;;;;;;;28.17;24.27;;;0.60;99.90;;;;;;5024809;28;20056;-75
2021/01/11 09:10:16;;;;;;;25.00;22.67;;;0.60;99.90;;;;;;5046781;28;20087;-75
2021/01/11 09:12:42;;;;;;;25.58;23.23;;;0.70;99.90;;;;;;5060691;28;20054;-75
2021/01/11 09:15:09;;;;;;;25.50;23.23;;;0.80;99.90;;;;;;5064184;28;20484;-76
2021/01/11 09:17:36;;;;;;;25.40;22.70;;;0.80;99.90;;;;;;5031501;28;20064;-76
2021/01/11 09:20:06;;;;;;;25.20;23.00;;;0.90;99.90;;;;;;5047860;28;20098;-76
2021/01/11 09:22:41;;;;;;;23.15;21.25;;;0.90;99.90;;;;;;5046930;28;20407;-75
2021/01/11 09:25:11;;;;;;;25.27;22.85;;;0.90;99.90;;;;;;5064162;28;20048;-75
2021/01/11 09:27:40;;;;;;;28.73;25.67;;;0.90;99.90;;;;;;5048650;28;20044;-75
2021/01/11 09:30:08;;;;;;;26.23;23.80;;;1.00;99.90;;;;;;5060745;28;20061;-74
2021/01/11 09:32:36;;;;;;;26.35;24.05;;;0.90;99.90;;;;;;5026628;28;20041;-75
2021/01/11 09:35:04;;;;;;;26.90;23.45;;;0.90;99.90;;;;;;5044350;28;20505;-75
2021/01/11 09:37:30;;;;;;;25.75;23.25;;;1.00;99.90;;;;;;5047726;28;20041;-75
2021/01/11 09:39:57;;;;;;;26.73;24.25;;;1.10;99.90;;;;;;5047338;28;20087;-76
2021/01/11 09:42:23;;;;;;;27.65;24.85;;;1.10;99.90;;;;;;5027892;28;20045;-76
2021/01/11 09:44:50;;;;;;;23.30;21.27;;;1.20;99.90;;;;;;5011845;28;20060;-76
2021/01/11 09:47:16;;;;;;;25.45;22.98;;;1.20;99.90;;;;;;5027169;28;20080;-75
2021/01/11 09:49:43;;;;;;;24.23;22.08;;;1.20;99.90;;;;;;5012021;28;20059;-75
2021/01/11 09:52:09;;;;;;;24.27;21.98;;;1.20;99.90;;;;;;5059976;28;20041;-75
2021/01/11 09:54:36;;;;;;;22.85;20.48;;;1.20;99.90;;;;;;5044228;28;20059;-76
2021/01/11 09:57:04;;;;;;;25.30;22.30;;;1.20;99.90;;;;;;5026470;28;20065;-76
2021/01/11 09:59:31;;;;;;;25.13;22.80;;;1.20;99.90;;;;;;5037908;28;20033;-75
2021/01/11 10:01:58;;;;;;;25.30;22.52;;;1.20;99.90;;;;;;5041551;28;20084;-76
2021/01/11 10:04:24;;;;;;;25.42;21.77;;;1.20;99.90;;;;;;5044511;28;20055;-76
2021/01/11 10:06:53;;;;;;;24.10;21.75;;;1.30;99.90;;;;;;5026809;28;20120;-76
2021/01/11 10:09:25;;;;;;;23.15;21.10;;;1.30;99.90;;;;;;5011218;28;20076;-76
2021/01/11 10:11:56;;;;;;;25.08;22.38;;;1.30;99.90;;;;;;5041123;28;20048;-75
2021/01/11 10:14:24;;;;;;;23.55;21.25;;;1.40;99.90;;;;;;5038601;28;20053;-76
2021/01/11 10:16:51;;;;;;;23.80;21.42;;;1.30;99.90;;;;;;5061633;28;20047;-75
2021/01/11 10:19:23;;;;;;;27.85;24.52;;;1.30;99.90;;;;;;5047925;28;20553;-76
2021/01/11 10:21:50;;;;;;;26.67;21.95;;;1.30;99.90;;;;;;5046346;28;20139;-76
2021/01/11 10:24:17;;;;;;;22.92;20.50;;;1.40;99.90;;;;;;5064135;28;20756;-76
2021/01/11 10:26:45;;;;;;;24.67;22.15;;;1.40;99.90;;;;;;5033195;28;20045;-76
2021/01/11 10:29:12;;;;;;;25.08;20.05;;;1.30;99.90;;;;;;5046868;28;20056;-76
2021/01/11 10:31:40;;;;;;;24.48;21.80;;;1.30;99.90;;;;;;5029712;28;20056;-76
2021/01/11 10:34:07;;;;;;;25.35;22.40;;;1.30;99.90;;;;;;5042605;28;20060;-76
2021/01/11 10:36:42;;;;;;;20.58;18.67;;;1.40;99.90;;;;;;5049666;28;20044;-76
2021/01/11 10:39:09;;;;;;;23.95;21.55;;;1.40;99.90;;;;;;5065799;28;20045;-74
2021/01/11 10:41:36;;;;;;;23.70;21.23;;;1.40;99.90;;;;;;5046751;28;20044;-74
2021/01/11 10:44:04;;;;;;;25.80;21.13;;;1.40;99.90;;;;;;5064067;28;20124;-76
2021/01/11 10:46:31;;;;;;;23.67;20.70;;;1.40;99.90;;;;;;5038417;28;20569;-74
2021/01/11 10:48:58;;;;;;;26.63;21.30;;;1.30;99.90;;;;;;5047261;28;20048;-76
2021/01/11 10:51:24;;;;;;;23.33;19.45;;;1.40;99.90;;;;;;5064522;28;20068;-75
2021/01/11 10:53:51;;;;;;;21.00;19.08;;;1.50;99.90;;;;;;5046253;28;20414;-77
2021/01/11 10:56:18;;;;;;;19.45;17.75;;;1.50;99.90;;;;;;5061948;28;20098;-74
2021/01/11 10:58:45;;;;;;;21.88;19.67;;;1.50;99.90;;;;;;5064089;28;20414;-75
2021/01/11 11:01:14;;;;;;;22.13;19.90;;;1.60;99.90;;;;;;5027360;28;20467;-76
2021/01/11 11:03:42;;;;;;;22.17;19.98;;;1.60;99.90;;;;;;5047107;28;20067;-75
2021/01/11 11:06:09;;;;;;;24.70;22.13;;;1.60;99.90;;;;;;5045738;28;20040;-75
2021/01/11 11:08:35;;;;;;;21.77;19.77;;;1.60;99.90;;;;;;5063687;28;20114;-75
2021/01/11 11:11:02;;;;;;;22.30;20.17;;;1.50;99.90;;;;;;5043149;28;20045;-75
2021/01/11 11:13:30;;;;;;;21.55;19.48;;;1.50;99.90;;;;;;5062568;28;20445;-75
2021/01/11 11:15:58;;;;;;;20.70;18.02;;;1.40;99.90;;;;;;5058279;28;20128;-74
2021/01/11 11:18:24;;;;;;;21.27;19.17;;;1.40;99.90;;;;;;5047134;28;20044;-75
2021/01/11 11:20:51;;;;;;;20.83;18.83;;;1.30;99.90;;;;;;5023439;28;20511;-74
2021/01/11 11:23:19;;;;;;;26.23;21.13;;;1.30;99.90;;;;;;5042324;28;20157;-75
2021/01/11 11:25:45;;;;;;;23.08;20.73;;;1.30;99.90;;;;;;5032633;28;20290;-75
2021/01/11 11:28:13;;;;;;;22.65;19.60;;;1.30;99.90;;;;;;5068776;28;20048;-75
2021/01/11 11:30:43;;;;;;;24.17;21.70;;;1.30;99.90;;;;;;5047452;28;20119;-75
2021/01/11 11:33:10;;;;;;;27.38;21.85;;;1.30;99.90;;;;;;5066484;28;20094;-74
2021/01/11 11:35:41;;;;;;;21.35;19.30;;;1.40;99.90;;;;;;5032879;28;20065;-76
2021/01/11 11:38:10;;;;;;;22.77;19.05;;;1.40;99.90;;;;;;5049974;28;20135;-76
2021/01/11 11:40:37;;;;;;;20.63;17.42;;;1.40;99.90;;;;;;5029560;28;20063;-75
2021/01/11 11:43:12;;;;;;;22.15;17.92;;;1.40;99.90;;;;;;5047034;28;20067;-76
2021/01/11 11:45:42;;;;;;;22.73;20.05;;;1.40;99.90;;;;;;5027017;28;20083;-75
2021/01/11 11:48:10;;;;;;;20.50;18.40;;;1.40;99.90;;;;;;5020931;28;20194;-74
2021/01/11 11:50:37;;;;;;;18.67;17.02;;;1.40;99.90;;;;;;5033460;28;20049;-76
2021/01/11 11:53:03;;;;;;;29.85;20.13;;;1.30;99.90;;;;;;5046948;28;20072;-74
2021/01/11 11:55:30;;;;;;;21.85;19.45;;;1.30;99.90;;;;;;5046065;28;20080;-73
2021/01/11 11:57:56;;;;;;;21.40;19.35;;;1.30;99.90;;;;;;5048028;28;20052;-73
2021/01/11 12:00:23;;;;;;;21.00;18.92;;;1.30;99.90;;;;;;5047758;28;20077;-74
2021/01/11 12:03:09;;;;;;;20.77;18.95;;;1.30;99.90;;;;;;5063033;28;20149;-75
2021/01/11 12:05:36;;;;;;;22.67;20.20;;;1.30;99.90;;;;;;5047742;28;20086;-73
2021/01/11 12:08:03;;;;;;;22.40;19.83;;;1.30;99.90;;;;;;5066774;28;20040;-75
2021/01/11 12:10:29;;;;;;;21.75;19.48;;;1.30;99.90;;;;;;5066632;28;20048;-75
2021/01/11 12:12:56;;;;;;;23.13;20.63;;;1.30;99.90;;;;;;5065932;28;20063;-74
2021/01/11 12:15:22;;;;;;;23.75;20.67;;;1.30;99.90;;;;;;5045618;28;20718;-74
2021/01/11 12:17:50;;;;;;;20.52;18.33;;;1.30;99.90;;;;;;5010313;28;20056;-75
2021/01/11 12:20:16;;;;;;;22.35;19.95;;;1.30;99.90;;;;;;5049257;28;20056;-73
2021/01/11 12:22:42;;;;;;;21.77;18.00;;;1.30;99.90;;;;;;5060808;28;20122;-74
2021/01/11 12:25:09;;;;;;;19.05;17.08;;;1.20;99.90;;;;;;5065380;28;20434;-76
2021/01/11 12:27:36;;;;;;;24.42;19.25;;;1.20;99.90;;;;;;5066490;28;20048;-74
2021/01/11 12:30:04;;;;;;;25.00;19.90;;;1.20;99.90;;;;;;5049203;28;20068;-74
2021/01/11 12:32:31;;;;;;;27.65;20.58;;;1.30;99.90;;;;;;5064244;28;20051;-74
2021/01/11 12:34:57;;;;;;;20.55;18.25;;;1.30;99.90;;;;;;5049092;28;20142;-75
2021/01/11 12:37:24;;;;;;;19.13;17.23;;;1.20;99.90;;;;;;5047709;28;20056;-74
2021/01/11 12:39:51;;;;;;;21.38;18.25;;;1.30;99.90;;;;;;5065554;28;20203;-74
2021/01/11 12:42:18;;;;;;;19.25;17.50;;;1.20;99.90;;;;;;5047988;28;20691;-77
2021/01/11 12:44:44;;;;;;;17.88;16.17;;;1.30;99.90;;;;;;5066274;28;20477;-76
2021/01/11 12:47:12;;;;;;;21.48;18.33;;;1.30;99.90;;;;;;5044885;28;20079;-75
2021/01/11 12:49:39;;;;;;;19.15;17.15;;;1.30;99.90;;;;;;5065475;28;20045;-76